sensor_id;sensor_type;location;lat;lon;timestamp;pressure;altitude;pressure_sealevel;temperature;humidity
10464;BME280;5279;42.048;24.638;2024-02-26T00:01:13;97093.28;;;12.01;69.82
10464;BME280;5279;42.048;24.638;2024-02-26T00:03:40;97093.94;;;11.95;71.72
10464;BME280;5279;42.048;24.638;2024-02-26T00:06:07;97086.16;;;11.94;69.65
10464;BME280;5279;42.048;24.638;2024-02-26T00:08:34;97087.31;;;11.99;68.42
10464;BME280;5279;42.048;24.638;2024-02-26T00:11:01;97087.97;;;11.93;66.66
10464;BME280;5279;42.048;24.638;2024-02-26T00:13:28;97078.00;;;11.87;68.97
10464;BME280;5279;42.048;24.638;2024-02-26T00:15:54;97066.75;;;11.85;70.25
10464;BME280;5279;42.048;24.638;2024-02-26T00:18:23;97070.06;;;11.87;70.35
10464;BME280;5279;42.048;24.638;2024-02-26T00:20:49;97085.66;;;11.82;71.59
10464;BME280;5279;42.048;24.638;2024-02-26T00:23:16;97098.75;;;11.84;71.03
10464;BME280;5279;42.048;24.638;2024-02-26T00:25:43;97108.53;;;11.75;71.07
10464;BME280;5279;42.048;24.638;2024-02-26T00:28:10;97096.41;;;11.73;69.58
10464;BME280;5279;42.048;24.638;2024-02-26T00:30:38;97076.69;;;11.75;68.93
10464;BME280;5279;42.048;24.638;2024-02-26T00:33:05;97034.22;;;11.75;70.24
10464;BME280;5279;42.048;24.638;2024-02-26T00:35:33;97024.28;;;11.85;72.76
10464;BME280;5279;42.048;24.638;2024-02-26T00:38:00;97025.59;;;11.97;72.57
10464;BME280;5279;42.048;24.638;2024-02-26T00:40:28;97027.22;;;11.98;72.04
10464;BME280;5279;42.048;24.638;2024-02-26T00:42:55;97024.91;;;11.87;72.59
10464;BME280;5279;42.048;24.638;2024-02-26T00:45:21;97030.22;;;11.87;72.79
10464;BME280;5279;42.048;24.638;2024-02-26T00:47:48;97041.84;;;11.94;70.81
10464;BME280;5279;42.048;24.638;2024-02-26T00:50:15;97042.84;;;11.85;69.14
10464;BME280;5279;42.048;24.638;2024-02-26T00:52:43;97042.16;;;11.83;69.68
10464;BME280;5279;42.048;24.638;2024-02-26T00:55:10;97044.50;;;11.94;68.92
10464;BME280;5279;42.048;24.638;2024-02-26T00:57:36;97039.19;;;12.02;67.74
10464;BME280;5279;42.048;24.638;2024-02-26T01:00:04;97039.69;;;12.06;67.12
10464;BME280;5279;42.048;24.638;2024-02-26T01:02:34;97036.34;;;12.20;69.07
10464;BME280;5279;42.048;24.638;2024-02-26T01:05:00;97028.22;;;12.22;69.19
10464;BME280;5279;42.048;24.638;2024-02-26T01:07:28;97026.53;;;12.29;70.80
10464;BME280;5279;42.048;24.638;2024-02-26T01:10:00;97025.91;;;12.19;72.44
10464;BME280;5279;42.048;24.638;2024-02-26T01:12:26;97022.56;;;12.25;73.38
10464;BME280;5279;42.048;24.638;2024-02-26T01:14:53;97025.88;;;12.27;74.75
10464;BME280;5279;42.048;24.638;2024-02-26T01:17:20;97038.50;;;12.17;71.96
10464;BME280;5279;42.048;24.638;2024-02-26T01:19:47;97033.88;;;12.19;71.03
10464;BME280;5279;42.048;24.638;2024-02-26T01:22:13;97030.38;;;12.10;72.06
10464;BME280;5279;42.048;24.638;2024-02-26T01:24:40;97032.03;;;12.11;73.65
10464;BME280;5279;42.048;24.638;2024-02-26T01:27:08;97034.19;;;12.16;74.15
10464;BME280;5279;42.048;24.638;2024-02-26T01:29:35;97018.59;;;12.13;73.86
10464;BME280;5279;42.048;24.638;2024-02-26T01:32:02;97031.84;;;12.29;73.00
10464;BME280;5279;42.048;24.638;2024-02-26T01:34:30;97036.84;;;12.24;73.02
10464;BME280;5279;42.048;24.638;2024-02-26T01:36:57;97036.84;;;12.24;73.10
10464;BME280;5279;42.048;24.638;2024-02-26T01:39:24;97026.69;;;12.27;73.61
10464;BME280;5279;42.048;24.638;2024-02-26T01:41:50;97029.84;;;12.23;75.59
10464;BME280;5279;42.048;24.638;2024-02-26T01:44:18;97029.34;;;12.19;77.24
10464;BME280;5279;42.048;24.638;2024-02-26T01:46:45;97031.34;;;12.17;78.17
10464;BME280;5279;42.048;24.638;2024-02-26T01:49:12;97031.53;;;12.16;78.26
10464;BME280;5279;42.048;24.638;2024-02-26T01:51:40;97023.25;;;12.19;78.58
10464;BME280;5279;42.048;24.638;2024-02-26T01:54:08;97021.56;;;12.18;79.03
10464;BME280;5279;42.048;24.638;2024-02-26T01:56:36;97029.03;;;12.14;76.25
10464;BME280;5279;42.048;24.638;2024-02-26T01:59:05;97026.56;;;12.04;75.96
10464;BME280;5279;42.048;24.638;2024-02-26T02:01:34;97015.13;;;11.96;76.75
10464;BME280;5279;42.048;24.638;2024-02-26T02:04:01;97028.91;;;11.99;78.07
10464;BME280;5279;42.048;24.638;2024-02-26T02:06:28;97009.50;;;11.91;82.05
10464;BME280;5279;42.048;24.638;2024-02-26T02:08:55;97012.97;;;11.83;82.65
10464;BME280;5279;42.048;24.638;2024-02-26T02:11:22;97010.66;;;11.88;81.99
10464;BME280;5279;42.048;24.638;2024-02-26T02:13:49;97007.69;;;11.91;82.05
10464;BME280;5279;42.048;24.638;2024-02-26T02:16:16;97006.66;;;11.92;81.96
10464;BME280;5279;42.048;24.638;2024-02-26T02:18:44;97004.53;;;11.88;81.50
10464;BME280;5279;42.048;24.638;2024-02-26T02:21:12;96998.41;;;11.79;82.82
10464;BME280;5279;42.048;24.638;2024-02-26T02:23:39;97004.34;;;11.81;85.32
10464;BME280;5279;42.048;24.638;2024-02-26T02:26:05;97005.69;;;11.85;85.26
10464;BME280;5279;42.048;24.638;2024-02-26T02:28:32;97007.34;;;11.78;84.87
10464;BME280;5279;42.048;24.638;2024-02-26T02:30:59;97003.53;;;11.81;83.76
10464;BME280;5279;42.048;24.638;2024-02-26T02:33:26;97007.00;;;11.89;83.11
10464;BME280;5279;42.048;24.638;2024-02-26T02:35:53;96992.56;;;11.84;82.83
10464;BME280;5279;42.048;24.638;2024-02-26T02:38:22;97012.31;;;11.89;83.63
10464;BME280;5279;42.048;24.638;2024-02-26T02:40:51;97015.97;;;11.88;83.92
10464;BME280;5279;42.048;24.638;2024-02-26T02:43:17;97008.50;;;11.76;82.13
10464;BME280;5279;42.048;24.638;2024-02-26T02:45:44;97011.66;;;11.79;82.46
10464;BME280;5279;42.048;24.638;2024-02-26T02:48:11;97017.63;;;11.73;84.14
10464;BME280;5279;42.048;24.638;2024-02-26T02:50:38;97016.59;;;11.66;81.95
10464;BME280;5279;42.048;24.638;2024-02-26T02:53:05;97001.66;;;11.57;82.38
10464;BME280;5279;42.048;24.638;2024-02-26T02:55:33;97015.91;;;11.56;83.79
10464;BME280;5279;42.048;24.638;2024-02-26T02:58:00;97013.25;;;11.56;85.06
10464;BME280;5279;42.048;24.638;2024-02-26T03:00:26;97016.25;;;11.61;86.00
10464;BME280;5279;42.048;24.638;2024-02-26T03:02:53;97021.41;;;11.63;85.68
10464;BME280;5279;42.048;24.638;2024-02-26T03:05:20;97016.09;;;11.63;85.77
10464;BME280;5279;42.048;24.638;2024-02-26T03:07:46;97019.22;;;11.50;83.77
10464;BME280;5279;42.048;24.638;2024-02-26T03:10:13;97016.06;;;11.38;84.78
10464;BME280;5279;42.048;24.638;2024-02-26T03:12:42;97023.69;;;11.41;85.51
10464;BME280;5279;42.048;24.638;2024-02-26T03:15:09;97021.22;;;11.48;87.09
10464;BME280;5279;42.048;24.638;2024-02-26T03:17:37;97021.88;;;11.50;86.16
10464;BME280;5279;42.048;24.638;2024-02-26T03:20:05;97018.56;;;11.48;85.75
10464;BME280;5279;42.048;24.638;2024-02-26T03:22:34;97021.56;;;11.45;85.73
10464;BME280;5279;42.048;24.638;2024-02-26T03:25:00;97021.38;;;11.38;85.27
10464;BME280;5279;42.048;24.638;2024-02-26T03:27:27;97022.53;;;11.44;86.48
10464;BME280;5279;42.048;24.638;2024-02-26T03:29:55;97001.97;;;11.38;87.37
10464;BME280;5279;42.048;24.638;2024-02-26T03:32:22;97024.88;;;11.47;87.25
10464;BME280;5279;42.048;24.638;2024-02-26T03:34:49;97032.47;;;11.34;86.51
10464;BME280;5279;42.048;24.638;2024-02-26T03:37:19;97025.97;;;11.12;85.70
10464;BME280;5279;42.048;24.638;2024-02-26T03:39:46;97016.03;;;11.14;86.40
10464;BME280;5279;42.048;24.638;2024-02-26T03:42:12;97011.75;;;11.21;86.76
10464;BME280;5279;42.048;24.638;2024-02-26T03:44:39;97009.22;;;11.12;88.07
10464;BME280;5279;42.048;24.638;2024-02-26T03:47:08;97018.31;;;11.01;86.49
10464;BME280;5279;42.048;24.638;2024-02-26T03:49:35;97035.72;;;11.04;86.30
10464;BME280;5279;42.048;24.638;2024-02-26T03:52:02;97042.34;;;11.08;85.26
10464;BME280;5279;42.048;24.638;2024-02-26T03:54:29;97024.75;;;10.90;85.71
10464;BME280;5279;42.048;24.638;2024-02-26T03:56:55;97023.72;;;10.83;87.34
10464;BME280;5279;42.048;24.638;2024-02-26T03:59:22;97039.97;;;10.88;88.76
10464;BME280;5279;42.048;24.638;2024-02-26T04:01:50;97020.09;;;10.92;88.92
10464;BME280;5279;42.048;24.638;2024-02-26T04:04:18;97025.41;;;11.01;88.28
10464;BME280;5279;42.048;24.638;2024-02-26T04:06:45;97035.06;;;11.10;87.06
10464;BME280;5279;42.048;24.638;2024-02-26T04:09:13;97030.41;;;11.04;88.67
10464;BME280;5279;42.048;24.638;2024-02-26T04:11:40;97030.06;;;10.90;89.40
10464;BME280;5279;42.048;24.638;2024-02-26T04:14:08;97029.78;;;10.68;90.91
10464;BME280;5279;42.048;24.638;2024-02-26T04:16:37;97031.00;;;10.81;91.13
10464;BME280;5279;42.048;24.638;2024-02-26T04:19:04;97030.19;;;10.81;91.60
10464;BME280;5279;42.048;24.638;2024-02-26T04:21:33;97023.06;;;10.89;90.96
10464;BME280;5279;42.048;24.638;2024-02-26T04:24:00;97023.78;;;11.00;90.15
10464;BME280;5279;42.048;24.638;2024-02-26T04:26:27;97025.94;;;11.04;89.60
10464;BME280;5279;42.048;24.638;2024-02-26T04:28:54;97021.47;;;11.05;90.67
10464;BME280;5279;42.048;24.638;2024-02-26T04:31:21;97036.03;;;11.01;88.66
10464;BME280;5279;42.048;24.638;2024-02-26T04:33:48;97029.59;;;11.03;87.33
10464;BME280;5279;42.048;24.638;2024-02-26T04:36:15;97029.59;;;11.03;87.29
10464;BME280;5279;42.048;24.638;2024-02-26T04:38:43;97030.72;;;11.01;89.16
10464;BME280;5279;42.048;24.638;2024-02-26T04:41:10;97020.44;;;10.97;90.59
10464;BME280;5279;42.048;24.638;2024-02-26T04:43:37;97021.47;;;10.96;90.87
10464;BME280;5279;42.048;24.638;2024-02-26T04:46:06;97025.72;;;10.89;91.38
10464;BME280;5279;42.048;24.638;2024-02-26T04:48:34;97031.59;;;10.67;94.61
10464;BME280;5279;42.048;24.638;2024-02-26T04:51:01;97028.16;;;10.67;95.47
10464;BME280;5279;42.048;24.638;2024-02-26T04:53:28;97031.25;;;10.62;96.86
10464;BME280;5279;42.048;24.638;2024-02-26T04:55:56;97038.25;;;10.71;96.20
10464;BME280;5279;42.048;24.638;2024-02-26T04:58:23;97040.59;;;10.74;97.52
10464;BME280;5279;42.048;24.638;2024-02-26T05:00:50;97039.94;;;10.80;99.81
10464;BME280;5279;42.048;24.638;2024-02-26T05:03:17;97037.47;;;10.79;100.00
10464;BME280;5279;42.048;24.638;2024-02-26T05:05:44;97044.78;;;10.85;100.00
10464;BME280;5279;42.048;24.638;2024-02-26T05:08:11;97048.22;;;10.85;100.00
10464;BME280;5279;42.048;24.638;2024-02-26T05:10:37;97047.44;;;10.85;100.00
10464;BME280;5279;42.048;24.638;2024-02-26T05:13:08;97051.56;;;10.87;100.00
10464;BME280;5279;42.048;24.638;2024-02-26T05:15:34;97057.53;;;10.89;100.00
10464;BME280;5279;42.048;24.638;2024-02-26T05:18:01;97047.78;;;10.90;100.00
10464;BME280;5279;42.048;24.638;2024-02-26T05:20:28;97051.25;;;10.90;100.00
10464;BME280;5279;42.048;24.638;2024-02-26T05:22:56;97056.69;;;10.81;100.00
10464;BME280;5279;42.048;24.638;2024-02-26T05:25:24;97056.97;;;10.44;100.00
10464;BME280;5279;42.048;24.638;2024-02-26T05:27:51;97063.22;;;10.35;100.00
10464;BME280;5279;42.048;24.638;2024-02-26T05:30:19;97066.06;;;10.16;100.00
10464;BME280;5279;42.048;24.638;2024-02-26T05:32:46;97068.31;;;10.11;100.00
10464;BME280;5279;42.048;24.638;2024-02-26T05:35:12;97068.72;;;9.98;100.00
10464;BME280;5279;42.048;24.638;2024-02-26T05:37:40;97065.81;;;9.83;100.00
10464;BME280;5279;42.048;24.638;2024-02-26T05:40:07;97066.25;;;9.97;100.00
10464;BME280;5279;42.048;24.638;2024-02-26T05:42:34;97072.00;;;9.74;100.00
10464;BME280;5279;42.048;24.638;2024-02-26T05:45:01;97075.03;;;9.79;100.00
10464;BME280;5279;42.048;24.638;2024-02-26T05:47:33;97080.00;;;9.82;100.00
10464;BME280;5279;42.048;24.638;2024-02-26T05:50:00;97081.38;;;9.86;100.00
10464;BME280;5279;42.048;24.638;2024-02-26T05:52:29;97079.41;;;9.88;100.00
10464;BME280;5279;42.048;24.638;2024-02-26T05:54:57;97068.50;;;9.92;100.00
10464;BME280;5279;42.048;24.638;2024-02-26T05:57:23;97080.91;;;10.09;100.00
10464;BME280;5279;42.048;24.638;2024-02-26T05:59:50;97084.97;;;10.21;100.00
10464;BME280;5279;42.048;24.638;2024-02-26T06:02:17;97081.41;;;10.30;100.00
10464;BME280;5279;42.048;24.638;2024-02-26T06:04:45;97092.66;;;10.32;100.00
10464;BME280;5279;42.048;24.638;2024-02-26T06:07:12;97088.72;;;10.36;100.00
10464;BME280;5279;42.048;24.638;2024-02-26T06:09:39;97090.59;;;10.18;100.00
10464;BME280;5279;42.048;24.638;2024-02-26T06:12:06;97086.00;;;10.28;100.00
10464;BME280;5279;42.048;24.638;2024-02-26T06:14:33;97090.38;;;10.37;100.00
10464;BME280;5279;42.048;24.638;2024-02-26T06:17:00;97083.16;;;10.47;100.00
10464;BME280;5279;42.048;24.638;2024-02-26T06:19:26;97093.78;;;10.55;100.00
10464;BME280;5279;42.048;24.638;2024-02-26T06:21:55;97093.34;;;10.60;100.00
10464;BME280;5279;42.048;24.638;2024-02-26T06:24:21;97099.19;;;10.71;100.00
10464;BME280;5279;42.048;24.638;2024-02-26T06:26:48;97096.25;;;10.82;100.00
10464;BME280;5279;42.048;24.638;2024-02-26T06:29:15;97096.97;;;10.92;100.00
10464;BME280;5279;42.048;24.638;2024-02-26T06:31:42;97108.75;;;10.98;100.00
10464;BME280;5279;42.048;24.638;2024-02-26T06:34:09;97114.59;;;11.10;100.00
10464;BME280;5279;42.048;24.638;2024-02-26T06:36:37;97116.28;;;11.19;100.00
10464;BME280;5279;42.048;24.638;2024-02-26T06:39:05;97121.59;;;11.19;100.00
10464;BME280;5279;42.048;24.638;2024-02-26T06:41:31;97113.28;;;11.06;100.00
10464;BME280;5279;42.048;24.638;2024-02-26T06:43:58;97118.81;;;11.20;100.00
10464;BME280;5279;42.048;24.638;2024-02-26T06:46:25;97123.13;;;11.21;100.00
10464;BME280;5279;42.048;24.638;2024-02-26T06:48:54;97126.13;;;11.34;100.00
10464;BME280;5279;42.048;24.638;2024-02-26T06:51:20;97125.84;;;11.45;100.00
10464;BME280;5279;42.048;24.638;2024-02-26T06:53:48;97129.34;;;11.54;100.00
10464;BME280;5279;42.048;24.638;2024-02-26T06:56:16;97125.41;;;11.66;97.07
10464;BME280;5279;42.048;24.638;2024-02-26T06:58:43;97133.09;;;11.85;96.83
10464;BME280;5279;42.048;24.638;2024-02-26T07:01:11;97131.78;;;11.97;98.20
10464;BME280;5279;42.048;24.638;2024-02-26T07:03:40;97127.78;;;12.01;97.34
10464;BME280;5279;42.048;24.638;2024-02-26T07:06:06;97137.09;;;12.14;95.76
10464;BME280;5279;42.048;24.638;2024-02-26T07:08:34;97138.59;;;12.16;92.56
10464;BME280;5279;42.048;24.638;2024-02-26T07:11:01;97136.75;;;12.17;92.78
10464;BME280;5279;42.048;24.638;2024-02-26T07:13:29;97135.78;;;12.10;92.71
10464;BME280;5279;42.048;24.638;2024-02-26T07:15:56;97136.75;;;12.17;92.20
10464;BME280;5279;42.048;24.638;2024-02-26T07:18:22;97141.75;;;12.20;92.25
10464;BME280;5279;42.048;24.638;2024-02-26T07:20:49;97133.47;;;12.31;90.24
10464;BME280;5279;42.048;24.638;2024-02-26T07:23:16;97141.91;;;12.42;88.69
10464;BME280;5279;42.048;24.638;2024-02-26T07:25:43;97138.06;;;12.53;87.72
10464;BME280;5279;42.048;24.638;2024-02-26T07:28:11;97133.41;;;12.63;87.37
10464;BME280;5279;42.048;24.638;2024-02-26T07:30:39;97137.88;;;12.79;86.36
10464;BME280;5279;42.048;24.638;2024-02-26T07:33:06;97136.66;;;12.89;86.68
10464;BME280;5279;42.048;24.638;2024-02-26T07:35:33;97136.34;;;13.00;85.52
10464;BME280;5279;42.048;24.638;2024-02-26T07:38:02;97130.66;;;13.11;83.60
10464;BME280;5279;42.048;24.638;2024-02-26T07:40:28;97131.94;;;13.24;82.63
10464;BME280;5279;42.048;24.638;2024-02-26T07:42:55;97130.41;;;13.29;81.93
10464;BME280;5279;42.048;24.638;2024-02-26T07:45:22;97133.56;;;13.33;82.22
10464;BME280;5279;42.048;24.638;2024-02-26T07:47:50;97122.53;;;13.44;82.51
10464;BME280;5279;42.048;24.638;2024-02-26T07:50:17;97112.84;;;13.51;81.04
10464;BME280;5279;42.048;24.638;2024-02-26T07:52:45;97128.56;;;13.68;80.38
10464;BME280;5279;42.048;24.638;2024-02-26T07:55:12;97111.72;;;13.76;79.02
10464;BME280;5279;42.048;24.638;2024-02-26T07:57:41;97120.00;;;13.81;79.66
10464;BME280;5279;42.048;24.638;2024-02-26T08:00:09;97112.28;;;13.86;79.23
10464;BME280;5279;42.048;24.638;2024-02-26T08:02:36;97113.72;;;13.97;79.20
10464;BME280;5279;42.048;24.638;2024-02-26T08:05:05;97116.19;;;13.98;80.65
10464;BME280;5279;42.048;24.638;2024-02-26T08:07:32;97117.50;;;14.02;82.18
10464;BME280;5279;42.048;24.638;2024-02-26T08:09:59;97119.75;;;14.13;81.36
10464;BME280;5279;42.048;24.638;2024-02-26T08:12:25;97119.47;;;14.08;82.03
10464;BME280;5279;42.048;24.638;2024-02-26T08:14:51;97109.81;;;14.07;82.17
10464;BME280;5279;42.048;24.638;2024-02-26T08:17:18;97122.19;;;14.23;80.91
10464;BME280;5279;42.048;24.638;2024-02-26T08:19:44;97126.44;;;14.32;80.43
10464;BME280;5279;42.048;24.638;2024-02-26T08:22:13;97116.97;;;14.30;80.75
10464;BME280;5279;42.048;24.638;2024-02-26T08:24:41;97130.91;;;14.40;80.73
10464;BME280;5279;42.048;24.638;2024-02-26T08:27:08;97123.41;;;14.58;79.74
10464;BME280;5279;42.048;24.638;2024-02-26T08:29:35;97115.31;;;14.66;79.48
10464;BME280;5279;42.048;24.638;2024-02-26T08:32:02;97117.94;;;14.74;78.48
10464;BME280;5279;42.048;24.638;2024-02-26T08:34:29;97122.06;;;14.76;78.40
10464;BME280;5279;42.048;24.638;2024-02-26T08:36:56;97110.84;;;14.81;80.26
10464;BME280;5279;42.048;24.638;2024-02-26T08:39:24;97121.06;;;14.92;79.53
10464;BME280;5279;42.048;24.638;2024-02-26T08:41:51;97120.78;;;14.87;79.66
10464;BME280;5279;42.048;24.638;2024-02-26T08:44:18;97122.91;;;14.92;79.09
10464;BME280;5279;42.048;24.638;2024-02-26T08:46:44;97123.38;;;14.95;80.67
10464;BME280;5279;42.048;24.638;2024-02-26T08:49:12;97113.81;;;14.86;84.44
10464;BME280;5279;42.048;24.638;2024-02-26T08:51:41;97117.84;;;14.97;83.29
10464;BME280;5279;42.048;24.638;2024-02-26T08:54:08;97109.31;;;15.01;83.60
10464;BME280;5279;42.048;24.638;2024-02-26T08:56:36;97103.59;;;15.04;84.53
10464;BME280;5279;42.048;24.638;2024-02-26T08:59:03;97117.94;;;15.03;86.92
10464;BME280;5279;42.048;24.638;2024-02-26T09:01:31;97107.72;;;15.21;86.85
10464;BME280;5279;42.048;24.638;2024-02-26T09:03:58;97106.50;;;15.39;86.45
10464;BME280;5279;42.048;24.638;2024-02-26T09:06:23;97106.13;;;15.42;86.48
10464;BME280;5279;42.048;24.638;2024-02-26T09:08:50;97103.56;;;15.33;87.46
10464;BME280;5279;42.048;24.638;2024-02-26T09:11:17;97107.31;;;15.54;85.76
10464;BME280;5279;42.048;24.638;2024-02-26T09:13:45;97103.09;;;15.59;85.84
10464;BME280;5279;42.048;24.638;2024-02-26T09:16:12;97113.03;;;15.51;86.65
10464;BME280;5279;42.048;24.638;2024-02-26T09:18:39;97107.59;;;15.59;86.12
10464;BME280;5279;42.048;24.638;2024-02-26T09:21:06;97097.56;;;15.46;88.02
10464;BME280;5279;42.048;24.638;2024-02-26T09:23:33;97091.50;;;15.38;89.09
10464;BME280;5279;42.048;24.638;2024-02-26T09:26:00;97092.72;;;15.20;90.44
10464;BME280;5279;42.048;24.638;2024-02-26T09:28:27;97100.25;;;15.31;90.54
10464;BME280;5279;42.048;24.638;2024-02-26T09:30:58;97099.34;;;15.24;90.81
10464;BME280;5279;42.048;24.638;2024-02-26T09:33:24;97098.03;;;15.20;92.88
10464;BME280;5279;42.048;24.638;2024-02-26T09:35:51;97101.28;;;15.01;94.14
10464;BME280;5279;42.048;24.638;2024-02-26T09:38:18;97104.97;;;15.15;92.68
10464;BME280;5279;42.048;24.638;2024-02-26T09:40:45;97105.41;;;15.18;92.34
10464;BME280;5279;42.048;24.638;2024-02-26T09:43:14;97095.84;;;15.09;92.27
10464;BME280;5279;42.048;24.638;2024-02-26T09:45:42;97090.16;;;15.12;91.89
10464;BME280;5279;42.048;24.638;2024-02-26T09:48:10;97092.72;;;14.91;95.15
10464;BME280;5279;42.048;24.638;2024-02-26T09:50:40;97092.56;;;15.07;93.91
10464;BME280;5279;42.048;24.638;2024-02-26T09:53:08;97077.97;;;15.24;92.76
10464;BME280;5279;42.048;24.638;2024-02-26T09:55:36;97086.25;;;15.59;89.35
10464;BME280;5279;42.048;24.638;2024-02-26T09:58:05;97093.00;;;15.76;86.81
10464;BME280;5279;42.048;24.638;2024-02-26T10:00:37;97071.09;;;15.66;88.28
10464;BME280;5279;42.048;24.638;2024-02-26T10:03:06;97079.41;;;15.92;85.70
10464;BME280;5279;42.048;24.638;2024-02-26T10:05:37;97081.31;;;16.19;84.41
10464;BME280;5279;42.048;24.638;2024-02-26T10:08:04;97069.44;;;16.28;82.43
10464;BME280;5279;42.048;24.638;2024-02-26T10:10:32;97068.00;;;16.26;82.45
10464;BME280;5279;42.048;24.638;2024-02-26T10:12:59;97059.09;;;16.47;80.92
10464;BME280;5279;42.048;24.638;2024-02-26T10:15:26;97053.56;;;16.76;78.76
10464;BME280;5279;42.048;24.638;2024-02-26T10:17:53;97050.81;;;16.97;76.93
10464;BME280;5279;42.048;24.638;2024-02-26T10:20:20;97055.00;;;17.13;75.29
10464;BME280;5279;42.048;24.638;2024-02-26T10:22:50;97046.56;;;17.57;74.11
10464;BME280;5279;42.048;24.638;2024-02-26T10:25:17;97047.44;;;17.83;71.14
10464;BME280;5279;42.048;24.638;2024-02-26T10:27:45;97048.69;;;17.94;69.47
10464;BME280;5279;42.048;24.638;2024-02-26T10:30:19;97049.53;;;18.01;68.80
10464;BME280;5279;42.048;24.638;2024-02-26T10:32:46;97041.91;;;18.11;67.39
10464;BME280;5279;42.048;24.638;2024-02-26T10:35:14;97040.69;;;18.20;67.92
10464;BME280;5279;42.048;24.638;2024-02-26T10:37:41;97031.19;;;18.24;66.88
10464;BME280;5279;42.048;24.638;2024-02-26T10:40:11;97028.09;;;18.34;67.02
10464;BME280;5279;42.048;24.638;2024-02-26T10:42:38;97024.16;;;18.43;65.85
10464;BME280;5279;42.048;24.638;2024-02-26T10:45:05;97036.34;;;18.72;65.16
10464;BME280;5279;42.048;24.638;2024-02-26T10:47:32;97026.22;;;18.67;64.45
10464;BME280;5279;42.048;24.638;2024-02-26T10:50:01;97023.75;;;18.66;64.09
10464;BME280;5279;42.048;24.638;2024-02-26T10:52:31;97027.69;;;18.50;63.59
10464;BME280;5279;42.048;24.638;2024-02-26T10:55:00;97028.09;;;18.47;63.89
10464;BME280;5279;42.048;24.638;2024-02-26T10:57:33;97016.09;;;18.76;63.24
10464;BME280;5279;42.048;24.638;2024-02-26T11:00:00;97016.06;;;18.89;61.75
10464;BME280;5279;42.048;24.638;2024-02-26T11:02:31;97013.22;;;18.77;60.70
10464;BME280;5279;42.048;24.638;2024-02-26T11:04:58;97011.19;;;18.60;59.95
10464;BME280;5279;42.048;24.638;2024-02-26T11:07:26;97010.78;;;18.49;60.36
10464;BME280;5279;42.048;24.638;2024-02-26T11:09:55;97007.66;;;18.39;59.53
10464;BME280;5279;42.048;24.638;2024-02-26T11:12:22;96999.00;;;18.37;58.50
10464;BME280;5279;42.048;24.638;2024-02-26T11:14:52;97003.34;;;18.51;58.71
10464;BME280;5279;42.048;24.638;2024-02-26T11:17:21;96988.06;;;18.59;58.90
10464;BME280;5279;42.048;24.638;2024-02-26T11:19:49;96991.13;;;18.69;57.72
10464;BME280;5279;42.048;24.638;2024-02-26T11:22:16;96994.53;;;19.08;57.60
10464;BME280;5279;42.048;24.638;2024-02-26T11:24:44;96995.66;;;19.32;56.47
10464;BME280;5279;42.048;24.638;2024-02-26T11:27:11;96998.88;;;19.85;54.23
10464;BME280;5279;42.048;24.638;2024-02-26T11:29:41;96989.03;;;20.53;52.51
10464;BME280;5279;42.048;24.638;2024-02-26T11:32:11;96977.63;;;21.60;50.11
10464;BME280;5279;42.048;24.638;2024-02-26T11:34:38;96980.16;;;22.50;47.39
10464;BME280;5279;42.048;24.638;2024-02-26T11:37:12;96983.22;;;22.42;46.20
10464;BME280;5279;42.048;24.638;2024-02-26T11:39:40;96975.94;;;22.54;46.30
10464;BME280;5279;42.048;24.638;2024-02-26T11:42:07;96963.50;;;22.41;46.10
10464;BME280;5279;42.048;24.638;2024-02-26T11:44:35;96969.25;;;22.10;46.81
10464;BME280;5279;42.048;24.638;2024-02-26T11:47:11;96963.53;;;21.58;47.22
10464;BME280;5279;42.048;24.638;2024-02-26T11:49:38;96962.13;;;21.26;48.12
10464;BME280;5279;42.048;24.638;2024-02-26T11:52:06;96958.03;;;20.87;49.45
10464;BME280;5279;42.048;24.638;2024-02-26T11:54:47;96962.69;;;20.37;51.14
10464;BME280;5279;42.048;24.638;2024-02-26T11:57:28;96940.78;;;20.34;51.53
10464;BME280;5279;42.048;24.638;2024-02-26T11:59:56;96963.97;;;20.35;51.74
10464;BME280;5279;42.048;24.638;2024-02-26T12:02:44;96957.84;;;20.21;51.96
10464;BME280;5279;42.048;24.638;2024-02-26T12:05:12;96959.91;;;19.94;52.90
10464;BME280;5279;42.048;24.638;2024-02-26T12:07:44;96960.56;;;19.65;53.79
10464;BME280;5279;42.048;24.638;2024-02-26T12:10:23;96957.81;;;19.40;54.25
10464;BME280;5279;42.048;24.638;2024-02-26T12:12:58;96960.19;;;19.17;55.10
10464;BME280;5279;42.048;24.638;2024-02-26T12:15:30;96960.63;;;19.14;55.61
10464;BME280;5279;42.048;24.638;2024-02-26T12:18:00;96946.94;;;19.22;55.61
10464;BME280;5279;42.048;24.638;2024-02-26T12:20:27;96957.31;;;19.56;54.53
10464;BME280;5279;42.048;24.638;2024-02-26T12:22:54;96959.94;;;19.70;53.97
10464;BME280;5279;42.048;24.638;2024-02-26T12:25:24;96952.13;;;20.11;52.48
10464;BME280;5279;42.048;24.638;2024-02-26T12:27:51;96956.78;;;20.29;52.08
10464;BME280;5279;42.048;24.638;2024-02-26T12:30:18;96949.09;;;20.32;51.57
10464;BME280;5279;42.048;24.638;2024-02-26T12:32:45;96947.91;;;20.64;51.03
10464;BME280;5279;42.048;24.638;2024-02-26T12:35:15;96951.28;;;20.96;49.80
10464;BME280;5279;42.048;24.638;2024-02-26T12:37:42;96953.84;;;20.91;49.24
10464;BME280;5279;42.048;24.638;2024-02-26T12:40:10;96948.91;;;20.88;49.22
10464;BME280;5279;42.048;24.638;2024-02-26T12:42:38;96935.91;;;20.67;49.80
10464;BME280;5279;42.048;24.638;2024-02-26T12:45:07;96938.66;;;20.79;49.51
10464;BME280;5279;42.048;24.638;2024-02-26T12:47:38;96935.53;;;20.63;49.76
10464;BME280;5279;42.048;24.638;2024-02-26T12:50:06;96940.00;;;20.51;50.09
10464;BME280;5279;42.048;24.638;2024-02-26T12:52:35;96947.63;;;20.54;50.10
10464;BME280;5279;42.048;24.638;2024-02-26T12:55:03;96939.38;;;20.49;50.08
10464;BME280;5279;42.048;24.638;2024-02-26T12:57:31;96939.53;;;20.36;50.25
10464;BME280;5279;42.048;24.638;2024-02-26T12:59:59;96950.38;;;20.23;50.69
10464;BME280;5279;42.048;24.638;2024-02-26T13:02:26;96946.88;;;19.98;52.06